Time;durP1;ratioP1;P1;durP2;ratioP2;P2;SDS_P1;SDS_P2;PMS_P1;PMS_P2;Temp;Humidity;BMP_temperature;BMP_pressure;BME280_temperature;BME280_humidity;BME280_pressure;Samples;Min_cycle;Max_cycle;Signal;HPM_P1;HPM_P2
2022/01/22 00:01:16;;;;;;;1.60;1.30;;;4.50;98.20;;;;;;4975325;28;20536;-77
2022/01/22 00:03:43;;;;;;;1.70;1.40;;;4.50;98.20;;;;;;4987790;28;20540;-76
2022/01/22 00:06:11;;;;;;;3.13;2.93;;;4.50;98.20;;;;;;4963806;28;20492;-79
2022/01/22 00:08:38;;;;;;;1.60;1.30;;;4.50;98.20;;;;;;4972173;28;20542;-79
2022/01/22 00:11:05;;;;;;;1.60;1.40;;;4.50;98.20;;;;;;4962324;28;20521;-77
2022/01/22 00:16:17;;;;;;;1.67;1.40;;;4.50;98.20;;;;;;4965273;28;20534;-77
2022/01/22 00:18:45;;;;;;;1.63;1.40;;;4.50;98.20;;;;;;4978626;28;20892;-75
2022/01/22 00:21:12;;;;;;;1.60;1.30;;;4.50;98.20;;;;;;4962270;28;20739;-75
2022/01/22 00:23:44;;;;;;;1.60;1.40;;;4.50;98.20;;;;;;4984132;28;20481;-75
2022/01/22 00:26:11;;;;;;;1.60;1.40;;;4.50;98.20;;;;;;4970101;28;20477;-77
2022/01/22 00:28:38;;;;;;;1.60;1.40;;;4.50;98.20;;;;;;4969839;28;20917;-79
2022/01/22 00:31:05;;;;;;;1.67;1.40;;;4.50;98.20;;;;;;4965857;28;20553;-76
2022/01/22 00:33:33;;;;;;;1.70;1.50;;;4.60;98.20;;;;;;4977981;28;20753;-77
2022/01/22 00:36:00;;;;;;;1.63;1.40;;;4.60;98.20;;;;;;4962299;28;20919;-76
2022/01/22 00:38:27;;;;;;;5.53;5.00;;;4.60;98.20;;;;;;4971908;28;20556;-78
2022/01/22 00:40:54;;;;;;;1.70;1.40;;;4.60;98.20;;;;;;4962706;28;20519;-75
2022/01/22 00:43:21;;;;;;;1.60;1.20;;;4.60;98.20;;;;;;4983037;28;20945;-77
2022/01/22 00:45:48;;;;;;;1.60;1.40;;;4.50;98.20;;;;;;4972773;28;20875;-76
2022/01/22 00:48:15;;;;;;;1.70;1.50;;;4.60;98.20;;;;;;4976134;28;20481;-77
2022/01/22 00:50:44;;;;;;;1.63;1.40;;;4.60;98.20;;;;;;4971704;28;20982;-77
2022/01/22 00:53:11;;;;;;;1.87;1.67;;;4.60;98.20;;;;;;4969978;28;20481;-74
2022/01/22 00:55:38;;;;;;;1.70;1.43;;;4.60;98.20;;;;;;4971458;28;20597;-76
2022/01/22 00:58:06;;;;;;;1.60;1.30;;;4.60;98.20;;;;;;4977454;28;20531;-77
2022/01/22 01:00:33;;;;;;;1.63;1.37;;;4.60;98.20;;;;;;4970463;28;20815;-76
2022/01/22 01:03:01;;;;;;;1.67;1.40;;;4.60;98.20;;;;;;4985148;28;20526;-77
2022/01/22 01:05:28;;;;;;;1.60;1.30;;;4.60;98.20;;;;;;4984511;28;20554;-76
2022/01/22 01:07:56;;;;;;;1.63;1.30;;;4.60;98.20;;;;;;4968050;28;20568;-79
2022/01/22 01:10:23;;;;;;;1.70;1.47;;;4.60;98.20;;;;;;4972495;28;20524;-77
2022/01/22 01:12:51;;;;;;;1.63;1.30;;;4.60;98.20;;;;;;4988392;28;20568;-77
2022/01/22 01:15:37;;;;;;;1.60;1.30;;;4.60;98.20;;;;;;4970122;28;20501;-79
2022/01/22 01:32:09;;;;;;;1.60;1.33;;;4.60;98.20;;;;;;4974152;28;20494;-76
2022/01/22 01:32:13;;;;;;;1.63;1.30;;;4.50;98.20;;;;;;4974957;28;20473;-77
2022/01/22 01:34:43;;;;;;;1.70;1.40;;;4.50;98.20;;;;;;4969482;28;20473;-77
2022/01/22 01:37:11;;;;;;;1.67;1.30;;;4.50;98.20;;;;;;4963841;28;20520;-78
2022/01/22 01:39:41;;;;;;;1.63;1.30;;;4.50;98.20;;;;;;4973556;28;20490;-77
2022/01/22 01:42:12;;;;;;;1.60;1.40;;;4.50;98.20;;;;;;4973979;28;20920;-77
2022/01/22 01:44:40;;;;;;;1.63;1.30;;;4.50;98.20;;;;;;4979705;28;20909;-77
2022/01/22 01:47:10;;;;;;;1.60;1.40;;;4.50;98.20;;;;;;4973110;28;20543;-76
2022/01/22 01:49:38;;;;;;;1.67;1.43;;;4.50;98.20;;;;;;4975453;28;20500;-77
2022/01/22 01:52:09;;;;;;;1.70;1.40;;;4.50;98.20;;;;;;4960920;28;20573;-77
2022/01/22 01:54:46;;;;;;;1.70;1.43;;;4.50;98.20;;;;;;4975669;28;20490;-76
2022/01/22 01:57:30;;;;;;;1.70;1.40;;;4.40;98.20;;;;;;4970644;28;20560;-77
2022/01/22 01:59:59;;;;;;;1.67;1.40;;;4.40;98.20;;;;;;4982216;28;20504;-77
2022/01/22 02:02:28;;;;;;;1.60;1.30;;;4.40;98.20;;;;;;4981533;28;20480;-75
2022/01/22 02:04:55;;;;;;;1.60;1.30;;;4.40;98.20;;;;;;4979646;28;21006;-76
2022/01/22 02:07:22;;;;;;;1.70;1.43;;;4.40;98.20;;;;;;4969337;28;20910;-77
2022/01/22 02:09:49;;;;;;;1.63;1.40;;;4.40;98.20;;;;;;4985530;28;20571;-75
2022/01/22 02:12:34;;;;;;;1.70;1.50;;;4.40;98.20;;;;;;4974310;28;20496;-75
2022/01/22 02:23:35;;;;;;;1.70;1.40;;;4.40;98.20;;;;;;4970447;28;20956;-77
2022/01/22 02:26:02;;;;;;;1.60;1.40;;;4.40;98.20;;;;;;4977095;28;20818;-75
2022/01/22 02:28:29;;;;;;;1.63;1.40;;;4.40;98.20;;;;;;4991152;28;20481;-76
2022/01/22 02:31:04;;;;;;;1.60;1.30;;;4.50;98.20;;;;;;4952368;28;20548;-76
2022/01/22 02:33:36;;;;;;;1.60;1.30;;;4.40;98.20;;;;;;4987067;28;20456;-76
2022/01/22 02:36:13;;;;;;;1.70;1.40;;;4.40;98.20;;;;;;4974368;28;20458;-76
2022/01/22 02:38:49;;;;;;;1.70;1.50;;;4.40;98.20;;;;;;4984863;28;20940;-77
2022/01/22 02:41:19;;;;;;;1.70;1.40;;;4.40;98.20;;;;;;4963025;28;20507;-75
2022/01/22 02:43:47;;;;;;;1.70;1.43;;;4.40;98.20;;;;;;4979248;28;21015;-77
2022/01/22 02:46:17;;;;;;;1.70;1.43;;;4.40;98.20;;;;;;4967763;28;21042;-77
2022/01/22 02:48:44;;;;;;;1.60;1.30;;;4.50;98.20;;;;;;4972496;28;20478;-75
2022/01/22 02:51:11;;;;;;;1.63;1.30;;;4.40;98.20;;;;;;4969402;28;20528;-75
2022/01/22 02:53:39;;;;;;;1.60;1.40;;;4.40;98.20;;;;;;4984224;28;20559;-75
2022/01/22 02:56:07;;;;;;;1.70;1.30;;;4.40;98.20;;;;;;4975909;28;20896;-76
2022/01/22 02:58:36;;;;;;;1.60;1.33;;;4.40;98.20;;;;;;4981309;28;20491;-77
2022/01/22 03:01:03;;;;;;;1.70;1.40;;;4.50;98.20;;;;;;4961818;28;20470;-77
2022/01/22 03:03:30;;;;;;;1.60;1.30;;;4.40;98.20;;;;;;4991221;28;20500;-74
2022/01/22 03:05:57;;;;;;;1.70;1.37;;;4.50;98.20;;;;;;4971683;28;20523;-75
2022/01/22 03:08:28;;;;;;;1.70;1.40;;;4.50;98.20;;;;;;4987757;28;20727;-77
2022/01/22 03:10:55;;;;;;;1.60;1.30;;;4.50;98.20;;;;;;4961196;28;20469;-76
2022/01/22 03:16:16;;;;;;;1.63;1.40;;;4.50;98.20;;;;;;4970932;28;20489;-78
2022/01/22 03:18:54;;;;;;;1.63;1.47;;;4.50;98.20;;;;;;4978672;28;20489;-76
2022/01/22 03:21:36;;;;;;;1.70;1.50;;;4.50;98.20;;;;;;4964416;28;20531;-77
2022/01/22 03:29:37;;;;;;;1.63;1.40;;;4.50;98.20;;;;;;4982077;28;20472;-77
2022/01/22 03:32:05;;;;;;;1.70;1.40;;;4.50;98.20;;;;;;4966997;28;20485;-78
2022/01/22 03:34:39;;;;;;;1.70;1.40;;;4.50;98.20;;;;;;4980795;28;20816;-77
2022/01/22 03:37:06;;;;;;;1.60;1.30;;;4.50;98.20;;;;;;4968565;28;20494;-74
2022/01/22 03:39:33;;;;;;;1.60;1.40;;;4.50;98.20;;;;;;4987785;28;21258;-80
2022/01/22 03:42:00;;;;;;;1.60;1.30;;;4.50;98.20;;;;;;4973282;28;20999;-78
2022/01/22 03:44:27;;;;;;;1.67;1.37;;;4.50;98.20;;;;;;4973175;28;20882;-76
2022/01/22 03:46:56;;;;;;;1.60;1.30;;;4.60;98.20;;;;;;4973638;28;20489;-76
2022/01/22 03:49:23;;;;;;;1.70;1.50;;;4.60;98.20;;;;;;4977224;28;20509;-76
2022/01/22 03:51:50;;;;;;;1.60;1.40;;;4.60;98.20;;;;;;4971908;28;20953;-75
2022/01/22 03:54:17;;;;;;;1.67;1.30;;;4.60;98.20;;;;;;4974700;28;20470;-75
2022/01/22 03:56:45;;;;;;;1.70;1.40;;;4.60;98.20;;;;;;4977910;28;20586;-76
2022/01/22 03:59:12;;;;;;;1.70;1.40;;;4.60;98.20;;;;;;4983351;28;20488;-73
2022/01/22 04:04:30;;;;;;;1.63;1.40;;;4.60;98.20;;;;;;4988926;28;20492;-76
2022/01/22 04:09:44;;;;;;;1.67;1.30;;;4.60;98.20;;;;;;4979917;28;20490;-75
2022/01/22 04:12:21;;;;;;;2.20;2.00;;;4.60;98.20;;;;;;4972362;28;20652;-75
2022/01/22 04:14:54;;;;;;;1.60;1.40;;;4.60;98.20;;;;;;4976602;28;20524;-75
2022/01/22 04:17:37;;;;;;;2.30;2.10;;;4.60;98.20;;;;;;4971293;28;20648;-74
2022/01/22 04:25:54;;;;;;;1.60;1.40;;;4.60;98.20;;;;;;4928394;29;20495;-73
2022/01/22 04:28:21;;;;;;;1.60;1.30;;;4.60;98.20;;;;;;4977804;28;20781;-75
2022/01/22 04:30:48;;;;;;;1.60;1.30;;;4.60;98.20;;;;;;4967893;28;20465;-74
2022/01/22 04:33:15;;;;;;;1.63;1.30;;;4.70;98.20;;;;;;4977819;28;20478;-74
2022/01/22 04:35:44;;;;;;;1.70;1.40;;;4.60;98.20;;;;;;4967870;28;20962;-74
2022/01/22 04:38:11;;;;;;;1.60;1.20;;;4.60;98.20;;;;;;4961607;28;20492;-74
2022/01/22 04:40:38;;;;;;;1.70;1.50;;;4.70;98.20;;;;;;4974717;28;21006;-75
2022/01/22 04:43:06;;;;;;;1.70;1.40;;;4.70;98.20;;;;;;4960117;28;20528;-74
2022/01/22 04:45:46;;;;;;;1.60;1.30;;;4.70;98.20;;;;;;4979152;28;20531;-75
2022/01/22 04:48:26;;;;;;;1.70;1.40;;;4.70;98.20;;;;;;4962648;28;20507;-75
2022/01/22 04:56:25;;;;;;;1.70;1.40;;;4.70;98.20;;;;;;4971690;28;20475;-76
2022/01/22 04:58:53;;;;;;;1.63;1.40;;;4.70;98.20;;;;;;4971576;28;20572;-77
2022/01/22 05:01:20;;;;;;;1.60;1.30;;;4.70;98.20;;;;;;4973331;28;20985;-75
2022/01/22 05:03:47;;;;;;;1.60;1.40;;;4.70;98.20;;;;;;4983181;28;20469;-77
2022/01/22 05:06:15;;;;;;;1.67;1.30;;;4.70;98.20;;;;;;4979531;28;20624;-76
2022/01/22 05:32:36;;;;;;;1.67;1.40;;;4.80;98.20;;;;;;4975807;28;20912;-77
2022/01/22 05:37:47;;;;;;;2.77;2.57;;;4.80;98.20;;;;;;4980034;28;20496;-73
2022/01/22 05:40:14;;;;;;;1.70;1.40;;;4.80;98.20;;;;;;4970136;28;20461;-73
2022/01/22 05:42:41;;;;;;;1.70;1.40;;;4.80;98.20;;;;;;4978953;28;20477;-73
2022/01/22 05:45:09;;;;;;;1.60;1.30;;;4.90;98.20;;;;;;4981270;28;20877;-73
2022/01/22 05:47:37;;;;;;;2.47;2.27;;;4.90;98.20;;;;;;4965530;28;20488;-73
2022/01/22 05:50:10;;;;;;;1.60;1.30;;;4.90;98.20;;;;;;4966463;28;21281;-74
2022/01/22 05:52:43;;;;;;;1.60;1.30;;;4.90;98.20;;;;;;4975649;28;20534;-71
2022/01/22 05:55:40;;;;;;;1.60;1.30;;;4.90;98.20;;;;;;4971345;28;20478;-71
2022/01/22 06:00:52;;;;;;;1.60;1.40;;;4.90;98.20;;;;;;4955705;28;21091;-71
2022/01/22 06:03:20;;;;;;;1.60;1.40;;;4.90;98.20;;;;;;4985157;28;20493;-71
2022/01/22 06:05:47;;;;;;;1.60;1.30;;;4.90;98.20;;;;;;4961296;28;20503;-71
2022/01/22 06:08:16;;;;;;;1.60;1.30;;;4.90;98.20;;;;;;4983812;28;20477;-71
2022/01/22 06:10:45;;;;;;;1.70;1.40;;;4.90;98.20;;;;;;4972825;28;20757;-71
2022/01/22 06:13:15;;;;;;;1.63;1.30;;;5.00;98.20;;;;;;4969076;28;20912;-72
2022/01/22 06:15:42;;;;;;;1.60;1.30;;;4.90;98.20;;;;;;4976914;28;20487;-71
2022/01/22 06:18:08;;;;;;;1.60;1.40;;;5.00;98.20;;;;;;4974443;28;20493;-72
2022/01/22 06:20:37;;;;;;;1.63;1.30;;;5.00;98.20;;;;;;4971109;28;20466;-72
2022/01/22 06:23:05;;;;;;;1.70;1.50;;;5.00;98.20;;;;;;4974925;28;20484;-71
2022/01/22 06:25:31;;;;;;;1.80;1.70;;;5.00;98.20;;;;;;4970895;28;20489;-71
2022/01/22 06:27:58;;;;;;;1.67;1.30;;;5.00;98.20;;;;;;4963872;28;20486;-71
2022/01/22 06:30:26;;;;;;;1.60;1.40;;;5.00;98.20;;;;;;4979073;28;20461;-72
2022/01/22 06:32:53;;;;;;;1.60;1.40;;;5.00;98.20;;;;;;4973503;28;20573;-71
2022/01/22 06:35:20;;;;;;;1.70;1.40;;;5.00;98.20;;;;;;4971740;28;20493;-71
2022/01/22 06:37:48;;;;;;;1.63;1.30;;;5.00;98.20;;;;;;4960090;28;20878;-71
2022/01/22 06:42:59;;;;;;;1.70;1.50;;;5.00;98.20;;;;;;4958928;28;20485;-71
2022/01/22 06:45:25;;;;;;;1.63;1.30;;;5.00;98.20;;;;;;4969995;28;20493;-71
2022/01/22 06:47:52;;;;;;;1.70;1.50;;;5.00;98.20;;;;;;4984296;28;20586;-71
2022/01/22 06:50:20;;;;;;;1.80;1.60;;;5.00;98.20;;;;;;4970776;28;20484;-71
2022/01/22 06:52:55;;;;;;;1.70;1.30;;;5.00;98.20;;;;;;4975376;28;20504;-71
2022/01/22 06:55:28;;;;;;;1.60;1.30;;;5.00;98.20;;;;;;4970428;28;20619;-72
2022/01/22 06:57:56;;;;;;;1.60;1.30;;;5.00;98.20;;;;;;4965673;28;20493;-72
2022/01/22 07:00:23;;;;;;;1.60;1.20;;;5.00;98.20;;;;;;4969404;28;20849;-71
2022/01/22 07:02:50;;;;;;;1.70;1.30;;;5.10;98.20;;;;;;4970945;28;20486;-71
2022/01/22 07:05:17;;;;;;;1.60;1.30;;;5.10;98.20;;;;;;4970337;28;20498;-71
2022/01/22 07:07:43;;;;;;;1.70;1.40;;;5.10;98.20;;;;;;4965259;28;20478;-71
2022/01/22 07:10:12;;;;;;;1.60;1.30;;;5.10;98.20;;;;;;4968726;28;21116;-72
2022/01/22 07:12:40;;;;;;;1.63;1.40;;;5.10;98.20;;;;;;4974704;28;20476;-72
2022/01/22 07:15:07;;;;;;;1.67;1.30;;;5.10;98.20;;;;;;4975878;28;20485;-72
2022/01/22 07:17:36;;;;;;;1.67;1.30;;;5.10;98.20;;;;;;4966731;28;20562;-72
2022/01/22 07:20:05;;;;;;;1.60;1.30;;;5.10;98.20;;;;;;4970783;28;20560;-71
2022/01/22 07:22:40;;;;;;;1.60;1.33;;;5.10;98.20;;;;;;4963138;28;20489;-71
2022/01/22 07:25:08;;;;;;;1.67;1.40;;;5.10;98.20;;;;;;4969579;28;20493;-72
2022/01/22 07:27:36;;;;;;;1.60;1.30;;;5.10;98.20;;;;;;4979938;28;20483;-71
2022/01/22 07:30:03;;;;;;;1.67;1.30;;;5.10;98.20;;;;;;4974476;28;20459;-71
2022/01/22 07:32:34;;;;;;;1.63;1.30;;;5.10;98.20;;;;;;4973443;28;20477;-71
2022/01/22 07:35:01;;;;;;;1.70;1.57;;;5.10;98.20;;;;;;4971033;28;20517;-70
2022/01/22 07:37:28;;;;;;;1.63;1.30;;;5.10;98.20;;;;;;4972636;28;20506;-71
2022/01/22 07:39:55;;;;;;;1.67;1.40;;;5.20;98.20;;;;;;4972625;28;20481;-71
2022/01/22 07:42:21;;;;;;;1.70;1.30;;;5.20;98.20;;;;;;4971781;28;20501;-71
2022/01/22 07:44:50;;;;;;;1.60;1.30;;;5.20;98.20;;;;;;4972472;28;20490;-71
2022/01/22 07:47:16;;;;;;;1.60;1.40;;;5.20;98.20;;;;;;4971141;28;20468;-71
2022/01/22 07:49:43;;;;;;;1.60;1.30;;;5.20;98.20;;;;;;4972639;28;20461;-71
2022/01/22 07:52:10;;;;;;;1.63;1.30;;;5.20;98.20;;;;;;4970718;28;20565;-71
2022/01/22 07:54:37;;;;;;;1.63;1.30;;;5.20;98.20;;;;;;4970505;28;20512;-71
2022/01/22 07:57:04;;;;;;;1.70;1.50;;;5.20;98.20;;;;;;4967926;28;20488;-71
2022/01/22 07:59:32;;;;;;;1.70;1.40;;;5.20;98.20;;;;;;4975115;28;20466;-71
2022/01/22 08:02:02;;;;;;;1.60;1.30;;;5.20;98.20;;;;;;4966772;28;20544;-71
2022/01/22 08:04:29;;;;;;;1.70;1.30;;;5.30;98.20;;;;;;4972631;28;20486;-71
2022/01/22 08:06:58;;;;;;;1.60;1.30;;;5.30;98.20;;;;;;4961978;28;20513;-70
2022/01/22 08:09:25;;;;;;;1.67;1.40;;;5.30;98.20;;;;;;4967007;28;20470;-71
2022/01/22 08:11:52;;;;;;;1.60;1.30;;;5.30;98.20;;;;;;4961333;28;20501;-70
2022/01/22 08:14:19;;;;;;;1.60;1.30;;;5.30;98.20;;;;;;4969555;28;20493;-71
2022/01/22 08:16:47;;;;;;;1.70;1.40;;;5.30;98.20;;;;;;4966005;28;21153;-71
2022/01/22 08:19:15;;;;;;;1.70;1.53;;;5.30;98.20;;;;;;4972830;28;20468;-71
2022/01/22 08:21:42;;;;;;;1.67;1.37;;;5.30;98.20;;;;;;4963108;28;20486;-71
2022/01/22 08:24:10;;;;;;;1.70;1.40;;;5.30;98.20;;;;;;4970293;28;20488;-71
2022/01/22 08:26:42;;;;;;;1.63;1.30;;;5.40;98.20;;;;;;4962866;28;20481;-70
2022/01/22 08:29:09;;;;;;;1.67;1.37;;;5.40;98.20;;;;;;4968586;28;20470;-71
2022/01/22 08:31:48;;;;;;;1.60;1.30;;;5.40;98.20;;;;;;4966140;28;20496;-70
2022/01/22 08:37:01;;;;;;;1.60;1.30;;;5.50;98.20;;;;;;4960639;28;20480;-71
2022/01/22 08:39:28;;;;;;;1.60;1.23;;;5.50;98.20;;;;;;4968407;28;20992;-71
2022/01/22 08:41:55;;;;;;;2.63;2.43;;;5.50;98.20;;;;;;4960141;28;20486;-71
2022/01/22 08:44:22;;;;;;;1.93;1.70;;;5.50;98.20;;;;;;4971431;28;20508;-71
2022/01/22 08:46:49;;;;;;;1.70;1.33;;;5.50;98.20;;;;;;4963035;28;20490;-71
2022/01/22 08:49:17;;;;;;;1.63;1.30;;;5.50;98.20;;;;;;4967360;28;20462;-71
2022/01/22 08:51:44;;;;;;;1.60;1.30;;;5.50;98.20;;;;;;4963129;28;20492;-71
2022/01/22 08:54:11;;;;;;;1.70;1.30;;;5.50;98.20;;;;;;4971008;28;20600;-71
2022/01/22 08:56:40;;;;;;;1.60;1.30;;;5.50;98.20;;;;;;4964640;28;20481;-71
2022/01/22 08:59:08;;;;;;;1.60;1.30;;;5.50;98.20;;;;;;4975101;28;20465;-71
2022/01/22 09:01:35;;;;;;;1.67;1.30;;;5.60;98.20;;;;;;4962172;28;20495;-74
2022/01/22 09:04:02;;;;;;;1.63;1.30;;;5.60;98.20;;;;;;4975969;28;20490;-73
2022/01/22 09:06:30;;;;;;;1.60;1.30;;;5.60;98.20;;;;;;4962527;28;20481;-71
2022/01/22 09:09:07;;;;;;;1.67;1.30;;;5.70;98.20;;;;;;4976175;28;20472;-71
2022/01/22 09:11:34;;;;;;;1.63;1.30;;;5.80;98.20;;;;;;4962298;28;20583;-71
2022/01/22 09:14:01;;;;;;;1.70;1.40;;;5.80;98.20;;;;;;4975774;28;20482;-71
2022/01/22 09:16:28;;;;;;;1.60;1.30;;;5.90;98.20;;;;;;4969039;28;20484;-71
2022/01/22 09:18:58;;;;;;;1.70;1.60;;;5.90;98.20;;;;;;4976589;28;20470;-71
2022/01/22 09:21:25;;;;;;;2.73;2.07;;;6.00;98.20;;;;;;4959605;28;20481;-71
2022/01/22 09:23:53;;;;;;;1.60;1.30;;;6.00;98.20;;;;;;4976243;28;20473;-70
2022/01/22 09:26:20;;;;;;;1.67;1.30;;;6.10;98.20;;;;;;4966015;28;20473;-71
2022/01/22 09:28:47;;;;;;;1.63;1.30;;;6.10;98.20;;;;;;4978476;28;20565;-71
2022/01/22 09:31:14;;;;;;;1.67;1.33;;;6.10;98.20;;;;;;4956167;28;21017;-70
2022/01/22 09:33:44;;;;;;;1.70;1.40;;;6.20;98.20;;;;;;4973443;28;20493;-70
2022/01/22 09:36:10;;;;;;;1.70;1.40;;;6.20;98.20;;;;;;4952971;28;20513;-70
2022/01/22 09:38:37;;;;;;;1.60;1.30;;;6.30;98.20;;;;;;4976230;28;20474;-70
2022/01/22 09:41:06;;;;;;;1.63;1.30;;;6.30;98.20;;;;;;4955013;28;20497;-70
2022/01/22 09:43:33;;;;;;;1.60;1.20;;;6.30;98.20;;;;;;4970453;28;20469;-70
2022/01/22 09:46:00;;;;;;;1.70;1.40;;;6.30;98.20;;;;;;4956661;28;20513;-70
2022/01/22 09:48:27;;;;;;;2.33;2.13;;;6.30;98.20;;;;;;4970020;28;20465;-70
2022/01/22 09:50:54;;;;;;;1.70;1.40;;;6.30;98.20;;;;;;4951329;28;20462;-70
2022/01/22 09:53:21;;;;;;;1.60;1.30;;;6.30;98.20;;;;;;4971006;28;21015;-70
2022/01/22 09:55:48;;;;;;;1.70;1.30;;;6.30;98.20;;;;;;4954138;28;20492;-71
2022/01/22 09:58:16;;;;;;;1.60;1.30;;;6.30;98.20;;;;;;4980202;28;20465;-70
2022/01/22 10:00:43;;;;;;;1.70;1.40;;;6.30;98.20;;;;;;4962581;28;20465;-70
2022/01/22 10:03:16;;;;;;;1.70;1.43;;;6.30;98.20;;;;;;4959480;28;20482;-70
2022/01/22 10:05:43;;;;;;;1.70;1.40;;;6.30;98.20;;;;;;4961128;28;20873;-71
2022/01/22 10:08:30;;;;;;;1.70;1.50;;;6.30;98.20;;;;;;4961347;28;21100;-70
2022/01/22 10:10:59;;;;;;;1.60;1.20;;;6.30;98.20;;;;;;4952183;28;20462;-71
2022/01/22 10:13:45;;;;;;;1.60;1.30;;;6.30;98.20;;;;;;4971865;28;20466;-71
2022/01/22 10:16:13;;;;;;;1.67;1.33;;;6.30;98.20;;;;;;4961484;28;20487;-71
2022/01/22 10:18:40;;;;;;;1.70;1.43;;;6.40;98.20;;;;;;4971546;28;20474;-71
2022/01/22 10:21:08;;;;;;;1.63;1.30;;;6.40;98.20;;;;;;4957225;28;20488;-71
2022/01/22 10:23:39;;;;;;;1.63;1.30;;;6.40;98.20;;;;;;4974459;28;20841;-71
2022/01/22 10:26:08;;;;;;;1.63;1.30;;;6.40;98.20;;;;;;4958236;28;20478;-71
2022/01/22 10:28:47;;;;;;;1.70;1.40;;;6.40;98.20;;;;;;4971089;28;20813;-70
2022/01/22 10:31:22;;;;;;;1.70;1.30;;;6.50;98.20;;;;;;4956749;28;20512;-70
2022/01/22 10:34:06;;;;;;;1.70;1.30;;;6.50;98.20;;;;;;4970232;28;20535;-71
2022/01/22 10:36:33;;;;;;;1.60;1.20;;;6.50;98.20;;;;;;4960909;28;21272;-71
2022/01/22 10:39:00;;;;;;;1.70;1.40;;;6.60;98.20;;;;;;4966211;28;20473;-71
2022/01/22 10:41:35;;;;;;;1.60;1.30;;;6.60;98.20;;;;;;4955940;28;21265;-71
2022/01/22 10:44:05;;;;;;;1.67;1.30;;;6.60;98.20;;;;;;4969127;28;20489;-71
2022/01/22 10:46:44;;;;;;;1.60;1.20;;;6.60;98.20;;;;;;4962645;28;20491;-70
2022/01/22 10:49:13;;;;;;;1.63;1.30;;;6.60;98.20;;;;;;4965991;28;20480;-70
2022/01/22 10:51:49;;;;;;;1.70;1.37;;;6.60;98.20;;;;;;4960619;28;20485;-71
2022/01/22 10:54:17;;;;;;;1.60;1.20;;;6.60;98.20;;;;;;4969986;28;20496;-71
2022/01/22 10:56:45;;;;;;;1.70;1.40;;;6.60;98.20;;;;;;4963051;28;20501;-70
2022/01/22 10:59:16;;;;;;;1.63;1.30;;;6.60;98.20;;;;;;4972903;28;20476;-70
2022/01/22 11:01:48;;;;;;;2.90;2.70;;;6.70;98.20;;;;;;4957482;28;20492;-70
2022/01/22 11:04:17;;;;;;;1.70;1.30;;;6.80;98.20;;;;;;4968246;28;20486;-71
2022/01/22 11:06:52;;;;;;;1.70;1.30;;;6.80;98.20;;;;;;4958480;28;20527;-71
2022/01/22 11:09:20;;;;;;;1.63;1.30;;;6.90;98.20;;;;;;4966602;28;21048;-72
2022/01/22 11:11:48;;;;;;;1.63;1.30;;;6.90;98.20;;;;;;4958567;28;20501;-72
2022/01/22 11:14:16;;;;;;;1.63;1.30;;;7.00;98.20;;;;;;4969408;28;20492;-72
2022/01/22 11:16:46;;;;;;;1.70;1.40;;;7.10;98.20;;;;;;4966175;28;20505;-71
2022/01/22 11:19:16;;;;;;;1.70;1.40;;;7.20;98.20;;;;;;4968911;28;20595;-72
2022/01/22 11:21:47;;;;;;;1.60;1.30;;;7.20;98.20;;;;;;4959349;28;20489;-72
2022/01/22 11:24:15;;;;;;;1.67;1.30;;;7.30;98.20;;;;;;4968867;28;20485;-74
2022/01/22 11:26:45;;;;;;;1.60;1.20;;;7.30;98.20;;;;;;4963822;28;20492;-72
2022/01/22 11:29:15;;;;;;;1.63;1.30;;;7.30;98.20;;;;;;4974066;28;20495;-72
2022/01/22 11:31:46;;;;;;;1.67;1.27;;;7.30;98.20;;;;;;4959046;28;20490;-72
2022/01/22 11:34:15;;;;;;;1.60;1.20;;;7.30;98.20;;;;;;4969597;28;20489;-72
2022/01/22 11:36:47;;;;;;;1.60;1.20;;;7.30;98.20;;;;;;4963819;28;20964;-72
2022/01/22 11:39:20;;;;;;;1.67;1.20;;;7.30;98.20;;;;;;4970538;28;20875;-73
2022/01/22 11:41:54;;;;;;;1.70;1.40;;;7.30;98.20;;;;;;4956840;28;20564;-72
2022/01/22 11:44:26;;;;;;;1.60;1.20;;;7.20;98.20;;;;;;4966513;28;20518;-72
2022/01/22 11:47:12;;;;;;;1.60;1.20;;;7.20;98.20;;;;;;4963152;28;20490;-72
2022/01/22 11:49:39;;;;;;;1.70;1.30;;;7.10;98.20;;;;;;4964512;28;20470;-72
2022/01/22 11:52:23;;;;;;;1.60;1.20;;;7.10;98.20;;;;;;4966393;28;20476;-72
2022/01/22 11:54:53;;;;;;;1.60;1.30;;;7.10;98.20;;;;;;4967056;28;20497;-72
2022/01/22 11:57:21;;;;;;;1.67;1.20;;;7.10;98.20;;;;;;4959405;28;20486;-72
2022/01/22 11:59:50;;;;;;;1.70;1.40;;;7.00;98.20;;;;;;4966682;28;20742;-72
2022/01/22 12:02:18;;;;;;;1.70;1.40;;;7.00;98.20;;;;;;4959959;28;20493;-72
2022/01/22 12:04:49;;;;;;;1.60;1.30;;;6.90;98.20;;;;;;4968180;28;20485;-72
2022/01/22 12:07:18;;;;;;;1.60;1.20;;;6.90;98.20;;;;;;4960881;28;20889;-72
2022/01/22 12:09:54;;;;;;;1.60;1.30;;;6.90;98.20;;;;;;4966712;28;20469;-72
2022/01/22 12:15:16;;;;;;;3.47;3.17;;;6.90;98.20;;;;;;4967736;28;20480;-71
2022/01/22 12:18:12;;;;;;;1.70;1.20;;;6.90;98.20;;;;;;4964442;28;20535;-72
2022/01/22 12:23:54;;;;;;;1.70;1.30;;;6.90;98.20;;;;;;4910654;28;20545;-73
2022/01/22 12:26:46;;;;;;;1.67;1.20;;;7.00;98.20;;;;;;4958474;28;20568;-71
2022/01/22 12:29:34;;;;;;;1.60;1.17;;;7.00;98.20;;;;;;4959214;28;20466;-72
2022/01/22 12:32:20;;;;;;;1.63;1.30;;;7.00;98.20;;;;;;4957858;28;20477;-72
2022/01/22 12:35:12;;;;;;;1.60;1.20;;;7.10;98.20;;;;;;4965363;28;20906;-73
2022/01/22 12:37:44;;;;;;;1.70;1.40;;;7.10;98.20;;;;;;4958375;28;20871;-74
2022/01/22 12:40:12;;;;;;;1.60;1.20;;;7.10;98.20;;;;;;4963792;28;20466;-74
2022/01/22 12:43:01;;;;;;;1.63;1.20;;;7.10;98.20;;;;;;4958356;28;20496;-73
2022/01/22 12:45:28;;;;;;;1.63;1.33;;;7.10;98.20;;;;;;4964117;28;20524;-72
2022/01/22 12:47:56;;;;;;;1.67;1.30;;;7.10;98.20;;;;;;4969344;28;20492;-72
2022/01/22 12:50:30;;;;;;;1.60;1.20;;;7.10;98.20;;;;;;4961340;28;20492;-73
2022/01/22 12:53:03;;;;;;;1.60;1.20;;;7.10;98.20;;;;;;4965169;28;20484;-72
2022/01/22 12:55:50;;;;;;;1.60;1.30;;;7.10;98.20;;;;;;4964383;28;20482;-71
2022/01/22 12:58:24;;;;;;;1.70;1.40;;;7.10;98.20;;;;;;4964987;28;20474;-72
2022/01/22 13:00:53;;;;;;;1.63;1.30;;;7.10;98.20;;;;;;4953387;28;20468;-73
2022/01/22 13:03:34;;;;;;;1.60;1.30;;;7.10;98.20;;;;;;4979670;28;20465;-70
2022/01/22 13:06:03;;;;;;;1.60;1.30;;;7.10;98.20;;;;;;4956420;28;20473;-70
2022/01/22 13:08:32;;;;;;;1.70;1.30;;;7.10;98.20;;;;;;4967806;28;20466;-70
2022/01/22 13:11:01;;;;;;;1.63;1.30;;;7.10;98.20;;;;;;4953503;28;20473;-72
2022/01/22 13:13:28;;;;;;;1.63;1.30;;;7.10;98.20;;;;;;4968408;28;20466;-71
2022/01/22 13:16:04;;;;;;;2.30;2.07;;;7.10;98.20;;;;;;4946685;28;20493;-71
2022/01/22 13:18:42;;;;;;;1.63;1.30;;;7.10;98.20;;;;;;4963908;28;20473;-71
2022/01/22 13:21:12;;;;;;;1.60;1.20;;;7.10;98.20;;;;;;4953674;28;20476;-71
2022/01/22 13:23:40;;;;;;;4.27;3.87;;;7.10;98.20;;;;;;4970595;28;20488;-71
2022/01/22 13:26:07;;;;;;;1.63;1.30;;;7.10;98.20;;;;;;4955757;28;20868;-71
2022/01/22 13:28:36;;;;;;;1.70;1.50;;;7.00;98.20;;;;;;4973982;28;20501;-71
2022/01/22 13:31:11;;;;;;;1.70;1.20;;;7.00;98.20;;;;;;4954304;28;20984;-71
2022/01/22 13:33:44;;;;;;;1.80;1.50;;;7.00;98.20;;;;;;4976680;28;20565;-71
2022/01/22 13:36:24;;;;;;;1.67;1.20;;;7.00;98.20;;;;;;4958278;28;20560;-71
2022/01/22 13:39:22;;;;;;;1.70;1.40;;;7.00;98.20;;;;;;4966634;28;20544;-69
2022/01/22 13:47:48;;;;;;;1.60;1.30;;;7.00;98.20;;;;;;4921599;28;20664;-69
2022/01/22 13:50:16;;;;;;;1.67;1.30;;;7.00;98.20;;;;;;4937464;29;20462;-69
2022/01/22 13:52:44;;;;;;;1.70;1.30;;;6.90;98.20;;;;;;4949947;28;21063;-69
2022/01/22 13:55:14;;;;;;;1.60;1.20;;;7.00;98.20;;;;;;4964288;28;20660;-69
2022/01/22 13:57:44;;;;;;;1.60;1.30;;;6.90;98.20;;;;;;4965405;28;20485;-70
2022/01/22 14:00:15;;;;;;;1.70;1.40;;;6.90;98.20;;;;;;4962233;28;20983;-70
2022/01/22 14:03:05;;;;;;;1.60;1.30;;;6.90;98.20;;;;;;4961589;28;20495;-70
2022/01/22 14:05:34;;;;;;;1.60;1.20;;;6.90;98.20;;;;;;4965594;28;20482;-70
2022/01/22 14:08:05;;;;;;;1.60;1.20;;;6.90;98.20;;;;;;4966129;28;20571;-70
2022/01/22 14:10:33;;;;;;;1.60;1.30;;;6.90;98.20;;;;;;4963661;28;20923;-70
2022/01/22 14:13:06;;;;;;;1.60;1.30;;;6.90;98.20;;;;;;4961235;28;20481;-70
2022/01/22 14:15:40;;;;;;;1.63;1.30;;;6.80;98.20;;;;;;4966973;28;20573;-70
2022/01/22 14:18:13;;;;;;;1.70;1.40;;;6.90;98.20;;;;;;4965391;28;20484;-70
2022/01/22 14:20:43;;;;;;;1.67;1.30;;;6.90;98.20;;;;;;4962111;28;20554;-70
2022/01/22 14:23:14;;;;;;;1.70;1.30;;;6.80;98.20;;;;;;4962834;28;20482;-70
2022/01/22 14:25:58;;;;;;;1.70;1.40;;;6.80;98.20;;;;;;4965135;28;21017;-70
2022/01/22 14:28:38;;;;;;;1.60;1.30;;;6.80;98.20;;;;;;4953161;28;20861;-70
2022/01/22 14:31:30;;;;;;;1.70;1.40;;;6.80;98.20;;;;;;4953706;28;20479;-70
2022/01/22 14:34:00;;;;;;;1.60;1.30;;;6.80;98.20;;;;;;4970750;28;21005;-70
2022/01/22 14:36:29;;;;;;;1.70;1.40;;;6.80;98.20;;;;;;4961370;28;20484;-70
2022/01/22 14:39:13;;;;;;;1.70;1.47;;;6.80;98.20;;;;;;4974555;28;20646;-70
2022/01/22 14:44:36;;;;;;;1.70;1.30;;;6.80;98.20;;;;;;4964035;28;20531;-70
2022/01/22 14:47:11;;;;;;;1.63;1.20;;;6.80;98.20;;;;;;4966251;28;20965;-70
2022/01/22 14:49:41;;;;;;;1.63;1.30;;;6.80;98.20;;;;;;4966548;28;20854;-70
2022/01/22 14:52:10;;;;;;;1.60;1.20;;;6.80;98.20;;;;;;4959680;28;20863;-70